Time;durP1;ratioP1;P1;durP2;ratioP2;P2;SDS_P1;SDS_P2;PMS_P1;PMS_P2;Temp;Humidity;BMP_temperature;BMP_pressure;BME280_temperature;BME280_humidity;BME280_pressure;Samples;Min_cycle;Max_cycle;Signal;HPM_P1;HPM_P2
2021/06/17 00:01:41;;;;;;;1213.23;999.90;;;22.30;99.90;;;;;;6333565;22;20469;-85
2021/06/17 00:04:08;;;;;;;1209.30;999.90;;;22.30;99.90;;;;;;6334338;22;20939;-87
2021/06/17 00:06:35;;;;;;;1209.43;999.90;;;22.30;99.90;;;;;;6333798;22;20493;-84
2021/06/17 00:09:02;;;;;;;1238.57;999.90;;;22.30;99.90;;;;;;6333876;22;20382;-85
2021/06/17 00:11:29;;;;;;;1228.43;999.90;;;22.20;99.90;;;;;;6334694;22;20409;-86
2021/06/17 00:13:56;;;;;;;1167.73;999.90;;;22.30;99.90;;;;;;6327074;22;20421;-85
2021/06/17 00:16:23;;;;;;;1155.47;999.90;;;22.20;99.90;;;;;;6326438;22;20430;-84
2021/06/17 00:18:51;;;;;;;1099.13;997.73;;;22.20;99.90;;;;;;6333220;22;20430;-84
2021/06/17 00:21:18;;;;;;;1058.50;968.80;;;22.20;99.90;;;;;;6334668;22;20390;-87
2021/06/17 00:23:45;;;;;;;1071.23;982.67;;;22.20;99.90;;;;;;6334680;22;20413;-86
2021/06/17 00:26:12;;;;;;;1104.03;996.80;;;22.20;99.90;;;;;;6334451;22;20405;-87
2021/06/17 00:28:39;;;;;;;1085.73;989.93;;;22.20;99.90;;;;;;6334291;22;20410;-85
2021/06/17 00:31:06;;;;;;;1043.47;961.27;;;22.20;99.90;;;;;;6334203;22;20400;-85
2021/06/17 00:33:33;;;;;;;1099.60;997.27;;;22.20;99.90;;;;;;6331136;22;20433;-86
2021/06/17 00:36:02;;;;;;;994.37;918.83;;;22.20;99.90;;;;;;6321334;22;20398;-85
2021/06/17 00:38:29;;;;;;;1001.40;927.47;;;22.10;99.90;;;;;;6320255;22;20769;-85
2021/06/17 00:40:55;;;;;;;960.87;890.00;;;22.10;99.90;;;;;;6321562;22;20425;-85
2021/06/17 00:43:23;;;;;;;964.80;893.60;;;22.10;99.90;;;;;;6321074;22;20433;-85
2021/06/17 00:45:51;;;;;;;941.03;870.57;;;22.10;99.90;;;;;;6319454;22;20450;-86
2021/06/17 00:48:18;;;;;;;909.53;846.03;;;22.10;99.90;;;;;;6320223;22;20429;-85
2021/06/17 00:50:47;;;;;;;934.60;868.23;;;22.10;99.90;;;;;;6322608;22;20394;-86
2021/06/17 00:53:17;;;;;;;870.77;812.63;;;22.10;99.90;;;;;;6319640;22;20900;-85
2021/06/17 00:55:46;;;;;;;1080.03;994.30;;;22.00;99.90;;;;;;6317761;22;20412;-86
2021/06/17 00:58:14;;;;;;;848.53;792.03;;;22.00;99.90;;;;;;6317410;22;20517;-84
2021/06/17 01:00:41;;;;;;;768.73;718.27;;;22.00;99.90;;;;;;6319029;22;20477;-84
2021/06/17 01:03:08;;;;;;;943.47;879.17;;;21.90;99.90;;;;;;6317263;22;20430;-85
2021/06/17 01:05:35;;;;;;;842.40;788.77;;;21.90;99.90;;;;;;6317854;22;20449;-85
2021/06/17 01:08:15;;;;;;;743.57;699.43;;;21.90;99.90;;;;;;6317635;22;20476;-85
2021/06/17 01:10:55;;;;;;;771.67;725.13;;;21.90;99.90;;;;;;6317892;22;20767;-84
2021/06/17 01:13:29;;;;;;;764.30;720.63;;;21.90;99.90;;;;;;6317912;22;20888;-85
2021/06/17 01:16:02;;;;;;;766.07;720.30;;;21.90;99.90;;;;;;6318768;22;20396;-86
2021/06/17 01:18:30;;;;;;;729.17;687.27;;;21.80;99.90;;;;;;6318981;22;20437;-86
2021/06/17 01:20:59;;;;;;;639.63;603.67;;;21.80;99.90;;;;;;6317420;22;20524;-85
2021/06/17 01:23:55;;;;;;;713.17;672.40;;;21.80;99.90;;;;;;6318549;22;20408;-85
2021/06/17 01:26:33;;;;;;;663.20;625.77;;;21.80;99.90;;;;;;6277417;22;20414;-85
2021/06/17 01:29:03;;;;;;;600.00;568.07;;;21.70;99.90;;;;;;6316564;22;20392;-84
2021/06/17 01:31:33;;;;;;;706.77;665.53;;;21.70;99.90;;;;;;6317282;22;20474;-85
2021/06/17 01:34:01;;;;;;;606.97;574.07;;;21.70;99.90;;;;;;6317398;22;20394;-85
2021/06/17 01:36:34;;;;;;;602.40;570.43;;;21.70;99.90;;;;;;6316355;22;20398;-85
2021/06/17 01:39:05;;;;;;;606.77;574.67;;;21.60;99.90;;;;;;6317023;22;20385;-86
2021/06/17 01:41:35;;;;;;;634.07;598.90;;;21.60;99.90;;;;;;6317067;22;20818;-85
2021/06/17 01:44:08;;;;;;;481.37;457.47;;;21.60;99.90;;;;;;6317829;22;20456;-85
2021/06/17 01:46:36;;;;;;;570.40;539.07;;;21.60;99.90;;;;;;6316833;22;20436;-84
2021/06/17 01:49:04;;;;;;;448.57;426.77;;;21.50;99.90;;;;;;6317555;22;20820;-85
2021/06/17 01:51:33;;;;;;;580.70;548.60;;;21.50;99.90;;;;;;6317735;22;20417;-84
2021/06/17 01:54:01;;;;;;;387.43;368.53;;;21.50;99.90;;;;;;6318068;22;20401;-86
2021/06/17 01:56:28;;;;;;;429.73;408.03;;;21.50;99.90;;;;;;6318189;22;20390;-85
2021/06/17 01:58:58;;;;;;;407.27;387.27;;;21.50;99.90;;;;;;6316771;22;20931;-85
2021/06/17 02:01:30;;;;;;;327.87;311.17;;;21.50;99.90;;;;;;6318226;22;20438;-85
2021/06/17 02:03:58;;;;;;;365.57;346.83;;;21.40;99.90;;;;;;6317476;22;20737;-84
2021/06/17 02:06:26;;;;;;;456.43;433.10;;;21.40;99.90;;;;;;6316634;22;20418;-85
2021/06/17 02:08:56;;;;;;;334.43;317.90;;;21.40;99.90;;;;;;6316870;22;20399;-85
2021/06/17 02:11:25;;;;;;;242.30;230.17;;;21.40;99.90;;;;;;6317686;22;20494;-84
2021/06/17 02:13:54;;;;;;;253.33;240.23;;;21.40;99.90;;;;;;6314940;22;20429;-84
2021/06/17 02:16:22;;;;;;;297.47;281.87;;;21.30;99.90;;;;;;6316462;22;20407;-85
2021/06/17 02:18:53;;;;;;;212.83;201.80;;;21.30;99.90;;;;;;6314790;22;20759;-85
2021/06/17 02:21:21;;;;;;;206.30;195.57;;;21.30;99.90;;;;;;6313893;22;20448;-83
2021/06/17 02:23:53;;;;;;;272.87;258.93;;;21.30;99.90;;;;;;6313844;22;20410;-85
2021/06/17 02:26:21;;;;;;;233.77;221.20;;;21.20;99.90;;;;;;6315863;22;20425;-84
2021/06/17 02:28:49;;;;;;;279.50;265.43;;;21.20;99.90;;;;;;6316124;22;20921;-85
2021/06/17 02:31:19;;;;;;;232.33;220.10;;;21.20;99.90;;;;;;6314601;22;20462;-84
2021/06/17 02:33:48;;;;;;;180.43;170.43;;;21.20;99.90;;;;;;6314442;22;20406;-86
2021/06/17 02:36:22;;;;;;;136.73;128.87;;;21.20;99.90;;;;;;6313391;22;20412;-85
2021/06/17 02:38:52;;;;;;;167.20;157.47;;;21.20;99.90;;;;;;6314616;22;20398;-85
2021/06/17 02:41:20;;;;;;;118.90;111.47;;;21.10;99.90;;;;;;6318797;22;20433;-84
2021/06/17 02:43:51;;;;;;;169.80;160.33;;;21.10;99.90;;;;;;6322000;22;20868;-84
2021/06/17 02:46:18;;;;;;;144.40;135.90;;;21.10;99.90;;;;;;6313383;22;20418;-82
2021/06/17 02:48:44;;;;;;;138.37;130.23;;;21.10;99.90;;;;;;6312733;22;20459;-84
2021/06/17 02:51:11;;;;;;;81.67;76.10;;;21.00;99.90;;;;;;6313681;22;20429;-84
2021/06/17 02:53:40;;;;;;;158.90;150.20;;;21.00;99.90;;;;;;6314932;22;20418;-85
2021/06/17 02:56:12;;;;;;;168.27;159.03;;;21.00;99.90;;;;;;6313471;22;20417;-85
2021/06/17 02:58:59;;;;;;;212.50;201.90;;;21.00;99.90;;;;;;6312926;22;20390;-84
2021/06/17 03:01:31;;;;;;;116.30;108.63;;;21.00;99.90;;;;;;6313569;22;20449;-84
2021/06/17 03:04:04;;;;;;;99.83;93.47;;;20.90;99.90;;;;;;6313644;22;20477;-84
2021/06/17 03:06:35;;;;;;;157.03;148.23;;;20.90;99.90;;;;;;6313003;22;20449;-85
2021/06/17 03:09:07;;;;;;;106.47;99.83;;;20.90;99.90;;;;;;6312071;22;20477;-83
2021/06/17 03:11:36;;;;;;;180.30;170.50;;;20.90;99.90;;;;;;6313488;22;20457;-84
2021/06/17 03:14:08;;;;;;;151.37;142.77;;;20.90;99.90;;;;;;6313214;22;20783;-84
2021/06/17 03:16:38;;;;;;;131.50;123.67;;;20.80;99.90;;;;;;6313464;22;20508;-84
2021/06/17 03:19:05;;;;;;;141.67;133.50;;;20.80;99.90;;;;;;6312184;22;20406;-84
2021/06/17 03:21:38;;;;;;;90.47;84.37;;;20.80;99.90;;;;;;6312976;22;20438;-84
2021/06/17 03:24:09;;;;;;;114.87;107.60;;;20.80;99.90;;;;;;6313109;22;20918;-83
2021/06/17 03:26:38;;;;;;;128.30;120.33;;;20.80;99.90;;;;;;6313107;22;20509;-85
2021/06/17 03:29:07;;;;;;;188.73;179.05;;;20.90;99.90;;;;;;6315408;22;20420;-85
2021/06/17 03:31:35;;;;;;;98.73;92.50;;;20.80;99.90;;;;;;6314031;22;20258;-85
2021/06/17 03:34:04;;;;;;;95.33;89.23;;;20.80;99.90;;;;;;6314690;22;20469;-86
2021/06/17 03:36:33;;;;;;;107.63;100.77;;;20.90;99.90;;;;;;6314194;22;20454;-85
2021/06/17 03:39:01;;;;;;;69.70;64.63;;;20.90;99.90;;;;;;6314075;22;20441;-85
2021/06/17 03:41:31;;;;;;;70.77;65.33;;;20.90;99.90;;;;;;6313558;22;20522;-85
2021/06/17 03:43:58;;;;;;;102.90;96.47;;;20.90;99.90;;;;;;6314819;22;20398;-84
2021/06/17 03:46:25;;;;;;;77.03;71.70;;;20.90;99.90;;;;;;6313233;22;20417;-85
2021/06/17 03:48:55;;;;;;;58.03;53.20;;;20.90;99.90;;;;;;6313190;22;20402;-83
2021/06/17 03:51:22;;;;;;;46.63;42.60;;;20.90;99.90;;;;;;6313288;22;20408;-84
2021/06/17 03:53:50;;;;;;;27.97;21.00;;;20.90;99.90;;;;;;6312631;22;20473;-84
2021/06/17 03:56:18;;;;;;;40.97;37.23;;;21.00;99.90;;;;;;6313012;22;20406;-84
2021/06/17 03:58:48;;;;;;;46.37;42.43;;;20.90;99.90;;;;;;6311879;22;20410;-85
2021/06/17 04:01:17;;;;;;;46.30;42.37;;;21.00;99.90;;;;;;6312259;22;20438;-85
2021/06/17 04:03:46;;;;;;;67.00;62.27;;;21.00;99.90;;;;;;6312582;22;20481;-85
2021/06/17 04:06:16;;;;;;;31.30;28.10;;;21.00;99.90;;;;;;6312934;22;20493;-85
2021/06/17 04:08:46;;;;;;;40.40;36.53;;;21.10;99.90;;;;;;6304264;22;20453;-79
2021/06/17 04:11:15;;;;;;;53.77;49.47;;;21.10;99.90;;;;;;6309291;22;20434;-82
2021/06/17 04:13:44;;;;;;;59.53;54.83;;;21.10;99.90;;;;;;6308958;22;20438;-82
2021/06/17 04:16:16;;;;;;;41.83;38.23;;;21.20;99.90;;;;;;6309428;22;20496;-82
2021/06/17 04:18:45;;;;;;;29.23;23.70;;;21.20;99.90;;;;;;6309424;22;20464;-82
2021/06/17 04:21:13;;;;;;;53.33;49.17;;;21.20;99.90;;;;;;6308922;22;20441;-81
2021/06/17 04:23:41;;;;;;;39.37;35.80;;;21.30;99.90;;;;;;6310366;22;20761;-81
2021/06/17 04:26:09;;;;;;;29.60;23.90;;;21.30;99.90;;;;;;6309356;22;20402;-82
2021/06/17 04:28:36;;;;;;;29.50;25.77;;;21.40;99.90;;;;;;6309817;22;20449;-81
2021/06/17 04:31:03;;;;;;;32.40;28.00;;;21.40;99.90;;;;;;6311158;22;20946;-81
2021/06/17 04:33:32;;;;;;;23.87;12.10;;;21.50;99.90;;;;;;6312334;22;20477;-81
2021/06/17 04:36:02;;;;;;;33.70;29.97;;;21.50;99.90;;;;;;6311030;22;20712;-81
2021/06/17 04:38:29;;;;;;;24.23;15.37;;;21.60;99.90;;;;;;6312121;22;20433;-81
2021/06/17 04:40:57;;;;;;;35.43;32.23;;;21.60;99.90;;;;;;6311601;22;20444;-81
2021/06/17 04:43:24;;;;;;;23.00;14.67;;;21.70;99.90;;;;;;6310801;22;20402;-81
2021/06/17 04:45:53;;;;;;;60.53;55.93;;;21.70;99.90;;;;;;6312334;22;20412;-81
2021/06/17 04:48:22;;;;;;;24.77;19.53;;;21.70;99.90;;;;;;6310744;22;20434;-80
2021/06/17 04:50:50;;;;;;;23.30;12.63;;;21.90;99.90;;;;;;6312244;22;20476;-82
2021/06/17 04:53:18;;;;;;;26.47;22.10;;;21.90;99.90;;;;;;6309683;22;20406;-82
2021/06/17 04:55:50;;;;;;;23.97;15.37;;;22.00;99.90;;;;;;6312077;22;21244;-82
2021/06/17 04:58:18;;;;;;;25.27;19.50;;;22.10;99.90;;;;;;6311291;22;20846;-82
2021/06/17 05:00:46;;;;;;;21.87;12.63;;;22.20;99.90;;;;;;6317858;22;20509;-81
2021/06/17 05:03:13;;;;;;;22.17;9.73;;;22.30;99.90;;;;;;6316277;22;20485;-81
2021/06/17 05:05:40;;;;;;;29.33;22.17;;;22.30;99.90;;;;;;6311024;22;20441;-80
2021/06/17 05:10:56;;;;;;;25.07;14.67;;;22.40;99.90;;;;;;6310823;22;20373;-80
2021/06/17 05:13:24;;;;;;;216.80;204.53;;;22.50;99.90;;;;;;6310614;22;20410;-80
2021/06/17 05:15:53;;;;;;;21.97;10.97;;;22.60;99.90;;;;;;6310115;22;20795;-80
2021/06/17 05:18:20;;;;;;;23.80;13.60;;;22.70;99.90;;;;;;6310943;22;20776;-80
2021/06/17 05:20:47;;;;;;;31.10;26.70;;;22.70;99.90;;;;;;6310359;22;20438;-80
2021/06/17 05:23:19;;;;;;;30.77;22.80;;;22.80;99.90;;;;;;6310248;22;21198;-81
2021/06/17 05:25:46;;;;;;;35.37;31.47;;;22.90;99.90;;;;;;6310628;22;20856;-80
2021/06/17 05:28:15;;;;;;;27.07;14.50;;;23.00;99.90;;;;;;6309489;22;20875;-80
2021/06/17 05:30:42;;;;;;;26.23;17.27;;;23.10;99.90;;;;;;6310505;22;20485;-80
2021/06/17 05:33:09;;;;;;;36.67;32.63;;;23.20;99.90;;;;;;6310725;22;20413;-80
2021/06/17 05:35:36;;;;;;;47.10;42.83;;;23.30;99.90;;;;;;6311034;22;20759;-80
2021/06/17 05:38:03;;;;;;;50.03;45.67;;;23.40;99.90;;;;;;6310512;22;20426;-80
2021/06/17 05:40:32;;;;;;;47.00;42.73;;;23.50;99.90;;;;;;6310195;22;20444;-80
2021/06/17 05:42:59;;;;;;;29.63;22.20;;;23.50;99.90;;;;;;6309881;22;20421;-81
2021/06/17 05:45:26;;;;;;;90.47;84.20;;;23.60;99.90;;;;;;6308526;22;20777;-81
2021/06/17 05:47:52;;;;;;;40.43;36.17;;;23.70;99.90;;;;;;6310497;22;20453;-81
2021/06/17 05:50:19;;;;;;;56.00;51.30;;;23.70;99.90;;;;;;6311739;22;20970;-82
2021/06/17 05:52:46;;;;;;;35.60;27.77;;;23.80;99.90;;;;;;6313386;22;20444;-83
2021/06/17 05:55:14;;;;;;;15.90;4.30;;;24.00;99.90;;;;;;6311628;22;20413;-82
2021/06/17 05:57:42;;;;;;;15.67;4.20;;;24.00;99.90;;;;;;6311656;22;20970;-83
2021/06/17 06:00:10;;;;;;;15.10;4.83;;;24.10;99.90;;;;;;6312316;22;20405;-82
2021/06/17 06:02:38;;;;;;;26.03;20.23;;;24.30;99.90;;;;;;6312298;22;20414;-83
2021/06/17 06:05:06;;;;;;;21.97;7.77;;;24.30;99.90;;;;;;6315747;22;20402;-83
2021/06/17 06:07:32;;;;;;;16.57;4.33;;;24.40;99.90;;;;;;6312175;22;20971;-82
2021/06/17 06:09:59;;;;;;;15.50;4.33;;;24.50;99.90;;;;;;6311793;22;20410;-82
2021/06/17 06:12:26;;;;;;;13.20;4.03;;;24.60;99.90;;;;;;6313292;22;20461;-83
2021/06/17 06:14:54;;;;;;;18.43;7.30;;;24.60;99.90;;;;;;6314302;22;20433;-82
2021/06/17 06:17:21;;;;;;;18.90;5.57;;;24.70;99.90;;;;;;6313965;22;20776;-82
2021/06/17 06:19:48;;;;;;;27.57;8.83;;;24.80;99.90;;;;;;6318737;22;20452;-82
2021/06/17 06:22:15;;;;;;;21.10;8.90;;;24.90;99.90;;;;;;6317419;22;20501;-82
2021/06/17 06:24:42;;;;;;;91.97;85.10;;;24.90;99.90;;;;;;6317115;22;20441;-82
2021/06/17 06:27:09;;;;;;;86.30;79.63;;;25.00;99.90;;;;;;6315194;22;20420;-83
2021/06/17 06:29:36;;;;;;;371.30;353.43;;;25.10;99.90;;;;;;6313220;22;20406;-82
2021/06/17 06:32:08;;;;;;;1999.90;999.90;;;25.20;99.90;;;;;;6310824;22;20402;-82
2021/06/17 06:34:35;;;;;;;1999.90;999.90;;;25.30;99.90;;;;;;6312843;22;20458;-83
2021/06/17 06:37:01;;;;;;;1999.90;999.90;;;25.40;99.90;;;;;;6315448;22;20180;-82
2021/06/17 06:39:28;;;;;;;1999.90;999.90;;;25.50;99.90;;;;;;6314928;22;20433;-82
2021/06/17 06:41:55;;;;;;;1999.90;999.90;;;25.60;99.90;;;;;;6314993;22;20536;-83
2021/06/17 06:44:22;;;;;;;1999.90;999.90;;;25.70;99.90;;;;;;6315877;22;20947;-83
2021/06/17 06:46:53;;;;;;;1999.90;999.90;;;25.80;99.90;;;;;;6319699;22;20436;-81
2021/06/17 06:49:21;;;;;;;1452.80;773.40;;;25.90;99.90;;;;;;6323480;22;20421;-82
2021/06/17 06:51:48;;;;;;;1999.90;999.90;;;26.10;99.90;;;;;;6316283;22;20430;-81
2021/06/17 06:54:18;;;;;;;676.77;640.87;;;26.20;99.90;;;;;;6315226;22;20466;-82
2021/06/17 06:56:46;;;;;;;1276.50;999.90;;;26.30;99.90;;;;;;6316872;22;20420;-84
2021/06/17 06:59:13;;;;;;;1334.23;999.90;;;26.30;99.90;;;;;;6314470;22;20494;-84
2021/06/17 07:01:40;;;;;;;690.20;649.27;;;26.40;99.90;;;;;;6315414;22;20480;-83
2021/06/17 07:04:07;;;;;;;1175.87;999.90;;;26.50;99.90;;;;;;6316273;22;20475;-82
2021/06/17 07:06:36;;;;;;;65.17;58.87;;;26.60;99.90;;;;;;6320045;22;20469;-83
2021/06/17 07:09:03;;;;;;;15.57;4.30;;;26.70;99.90;;;;;;6318066;22;20452;-82
2021/06/17 07:11:31;;;;;;;14.90;3.67;;;26.80;99.90;;;;;;6319015;22;20402;-83
2021/06/17 07:13:58;;;;;;;16.03;3.93;;;26.90;99.90;;;;;;6319768;22;20406;-82
2021/06/17 07:16:26;;;;;;;9.93;4.17;;;27.00;99.90;;;;;;6318814;22;20405;-83
2021/06/17 07:18:54;;;;;;;11.77;3.93;;;27.10;99.90;;;;;;6319761;22;20491;-82
2021/06/17 07:21:21;;;;;;;13.70;4.50;;;27.30;99.90;;;;;;6318417;22;20467;-82
2021/06/17 07:23:51;;;;;;;8.60;4.00;;;27.40;99.90;;;;;;6314756;22;20800;-81
2021/06/17 07:26:21;;;;;;;8.87;4.07;;;27.50;99.90;;;;;;6315699;22;20401;-81
2021/06/17 07:28:49;;;;;;;9.80;3.80;;;27.50;99.90;;;;;;6310902;22;20422;-81
2021/06/17 07:31:16;;;;;;;8.50;3.87;;;27.70;99.90;;;;;;6307328;22;20410;-82
2021/06/17 07:33:43;;;;;;;8.03;3.57;;;27.80;99.90;;;;;;6310168;22;20504;-82
2021/06/17 07:36:10;;;;;;;9.10;4.10;;;27.90;99.90;;;;;;6319427;22;20941;-81
2021/06/17 07:38:37;;;;;;;7.50;3.73;;;28.00;99.90;;;;;;6318732;22;20440;-80
2021/06/17 07:41:05;;;;;;;8.37;3.93;;;28.20;99.90;;;;;;6319514;22;20469;-80
2021/06/17 07:43:33;;;;;;;7.53;3.33;;;28.30;99.90;;;;;;6317461;22;20469;-82
2021/06/17 07:46:00;;;;;;;8.60;4.47;;;28.40;99.90;;;;;;6320698;22;20907;-81
2021/06/17 07:48:27;;;;;;;13.10;3.80;;;28.50;99.90;;;;;;6321520;22;20451;-82
2021/06/17 07:50:54;;;;;;;8.60;3.70;;;28.70;99.90;;;;;;6321111;22;20410;-81
2021/06/17 07:53:21;;;;;;;9.80;3.63;;;28.80;99.90;;;;;;6322003;22;20466;-82
2021/06/17 07:55:47;;;;;;;8.13;3.80;;;28.90;99.90;;;;;;6321275;22;20746;-81
2021/06/17 07:58:16;;;;;;;8.00;4.10;;;29.00;99.90;;;;;;6319694;22;20489;-81
2021/06/17 08:00:43;;;;;;;8.70;3.70;;;29.20;99.90;;;;;;6319371;22;20418;-81
2021/06/17 08:03:09;;;;;;;7.07;4.00;;;29.30;99.90;;;;;;6320519;22;20406;-80
2021/06/17 08:05:36;;;;;;;8.07;4.20;;;29.50;99.90;;;;;;6320184;22;20417;-82
2021/06/17 08:08:04;;;;;;;8.17;4.00;;;29.50;99.90;;;;;;6321214;22;20457;-80
2021/06/17 08:10:30;;;;;;;8.60;4.40;;;29.50;99.90;;;;;;6321931;22;20436;-81
2021/06/17 08:12:57;;;;;;;7.67;3.70;;;29.70;99.90;;;;;;6324034;22;20480;-81
2021/06/17 08:15:26;;;;;;;10.27;3.70;;;29.80;99.90;;;;;;6324355;22;20448;-82
2021/06/17 08:17:53;;;;;;;6.60;3.37;;;30.00;99.90;;;;;;6322914;22;20449;-82
2021/06/17 08:20:21;;;;;;;9.83;3.60;;;30.10;99.90;;;;;;6323626;22;20410;-80
2021/06/17 08:22:48;;;;;;;6.97;3.23;;;30.10;99.90;;;;;;6322623;22;20465;-81
2021/06/17 08:25:15;;;;;;;12.20;4.10;;;30.20;99.90;;;;;;6325629;22;20413;-81
2021/06/17 08:27:42;;;;;;;6.17;3.83;;;30.40;99.90;;;;;;6322378;22;20461;-81
2021/06/17 08:30:16;;;;;;;7.60;3.23;;;30.30;99.90;;;;;;6325347;22;20400;-81
2021/06/17 08:32:45;;;;;;;8.70;4.17;;;30.50;99.90;;;;;;6322491;22;20416;-81
2021/06/17 08:35:13;;;;;;;8.03;3.80;;;30.80;99.90;;;;;;6324382;22;20434;-83
2021/06/17 08:37:41;;;;;;;8.03;3.93;;;31.00;99.90;;;;;;6323606;22;20440;-81
2021/06/17 08:40:09;;;;;;;7.00;4.30;;;31.10;99.90;;;;;;6324965;22;20403;-82
2021/06/17 08:42:36;;;;;;;7.83;3.80;;;31.30;99.90;;;;;;6323566;22;20468;-81
2021/06/17 08:45:07;;;;;;;7.10;3.90;;;31.30;99.90;;;;;;6325174;22;20473;-81
2021/06/17 08:47:36;;;;;;;6.03;3.73;;;31.60;99.90;;;;;;6324393;22;20429;-81
2021/06/17 08:50:06;;;;;;;8.07;3.13;;;31.70;99.90;;;;;;6321451;22;20418;-82
2021/06/17 08:52:35;;;;;;;9.50;4.17;;;31.90;99.90;;;;;;6320814;22;20394;-81
2021/06/17 08:55:14;;;;;;;6.97;4.43;;;32.10;99.90;;;;;;6321881;22;20406;-82
2021/06/17 08:57:41;;;;;;;7.20;3.70;;;32.00;99.90;;;;;;6320236;22;20459;-80
2021/06/17 09:00:30;;;;;;;11.03;3.60;;;32.10;99.90;;;;;;6316363;22;20410;-82
2021/06/17 09:02:59;;;;;;;7.03;3.77;;;32.00;99.90;;;;;;6320764;22;20452;-80
2021/06/17 09:05:28;;;;;;;7.20;3.70;;;32.10;99.90;;;;;;6320656;22;20417;-81
2021/06/17 09:07:56;;;;;;;6.27;3.27;;;32.10;99.90;;;;;;6315383;22;20441;-82
2021/06/17 09:10:23;;;;;;;5.90;3.73;;;32.10;99.90;;;;;;6323798;22;20477;-81
2021/06/17 09:12:53;;;;;;;6.43;3.90;;;32.50;99.90;;;;;;6322192;22;20406;-80
2021/06/17 09:15:37;;;;;;;9.17;3.87;;;32.70;99.90;;;;;;6322135;22;20429;-80
2021/06/17 09:18:20;;;;;;;7.30;3.87;;;32.90;99.90;;;;;;6319182;22;20453;-81
2021/06/17 09:20:51;;;;;;;7.10;3.17;;;32.90;99.90;;;;;;6318698;22;20454;-80
2021/06/17 09:23:23;;;;;;;6.67;4.13;;;32.80;99.90;;;;;;6317358;22;20508;-80
2021/06/17 09:25:52;;;;;;;9.10;3.80;;;32.80;99.90;;;;;;6319043;22;20441;-81
2021/06/17 09:28:19;;;;;;;6.20;2.60;;;33.00;99.90;;;;;;6316842;22;20462;-81
2021/06/17 09:30:46;;;;;;;5.20;2.43;;;33.20;99.90;;;;;;6318819;22;20432;-81
2021/06/17 09:33:15;;;;;;;6.10;3.00;;;33.40;99.90;;;;;;6317726;22;20465;-81
2021/06/17 09:35:51;;;;;;;7.93;3.20;;;33.60;99.90;;;;;;6317407;22;20434;-81
2021/06/17 09:38:19;;;;;;;6.83;3.30;;;33.80;99.90;;;;;;6316165;22;20421;-82
2021/06/17 09:40:49;;;;;;;8.70;3.50;;;33.90;99.90;;;;;;6313016;22;20427;-81
2021/06/17 09:43:19;;;;;;;10.80;3.33;;;33.90;99.90;;;;;;6312728;22;20475;-82
2021/06/17 09:45:52;;;;;;;9.67;3.33;;;34.00;99.90;;;;;;6313857;22;20481;-82
2021/06/17 09:48:34;;;;;;;6.23;3.00;;;34.40;99.90;;;;;;6313690;22;20509;-80
2021/06/17 09:51:25;;;;;;;12.83;4.37;;;34.60;99.90;;;;;;6314284;22;20410;-83
2021/06/17 09:53:54;;;;;;;6.60;3.10;;;34.80;99.90;;;;;;6313400;22;20398;-83
2021/06/17 09:56:32;;;;;;;6.40;3.60;;;34.70;99.70;;;;;;6314759;22;20410;-83
2021/06/17 09:58:59;;;;;;;7.67;3.47;;;34.90;99.90;;;;;;6313517;22;20535;-81
2021/06/17 10:01:33;;;;;;;7.07;3.40;;;34.80;99.90;;;;;;6312785;22;20498;-81
2021/06/17 10:04:03;;;;;;;9.43;3.60;;;35.00;99.90;;;;;;6312625;22;20871;-82
2021/06/17 10:06:32;;;;;;;7.60;4.10;;;35.10;99.90;;;;;;6317497;22;20497;-82
2021/06/17 10:08:59;;;;;;;8.43;3.70;;;35.10;99.90;;;;;;6306163;22;20541;-82
2021/06/17 10:11:27;;;;;;;7.23;4.40;;;35.50;99.90;;;;;;6311407;22;20422;-81
2021/06/17 10:13:54;;;;;;;7.70;4.10;;;35.60;99.90;;;;;;6311385;22;20442;-82
2021/06/17 10:16:21;;;;;;;8.33;3.60;;;35.10;97.70;;;;;;6310954;22;20405;-82
2021/06/17 10:18:48;;;;;;;7.80;3.90;;;35.20;97.20;;;;;;6308717;22;20469;-83
2021/06/17 10:21:17;;;;;;;7.53;3.37;;;35.20;99.20;;;;;;6310510;22;20433;-81
2021/06/17 10:23:49;;;;;;;8.87;4.23;;;35.60;99.90;;;;;;6311429;22;20437;-82
2021/06/17 10:26:19;;;;;;;6.30;3.87;;;35.80;99.70;;;;;;6310483;22;20402;-80
2021/06/17 10:28:49;;;;;;;7.33;3.90;;;35.80;97.70;;;;;;6305676;22;20430;-83
2021/06/17 10:31:49;;;;;;;6.73;4.00;;;36.00;99.90;;;;;;6307179;22;20481;-81
2021/06/17 10:34:51;;;;;;;10.90;3.80;;;36.00;99.90;;;;;;6307981;22;20474;-82
2021/06/17 10:37:20;;;;;;;6.33;3.80;;;36.40;99.90;;;;;;6309966;22;20480;-83
2021/06/17 10:39:51;;;;;;;5.83;3.37;;;36.40;98.30;;;;;;6309170;22;20525;-81
2021/06/17 10:42:36;;;;;;;7.30;3.60;;;36.90;99.90;;;;;;6308988;22;20422;-83
2021/06/17 10:45:06;;;;;;;6.27;3.60;;;36.80;95.60;;;;;;6310068;22;20401;-82
2021/06/17 10:48:12;;;;;;;7.40;3.43;;;37.00;95.10;;;;;;6311159;22;20413;-82
2021/06/17 10:50:53;;;;;;;6.60;4.17;;;37.10;95.20;;;;;;6311053;22;20389;-82
2021/06/17 10:53:53;;;;;;;6.17;3.40;;;36.30;95.00;;;;;;6312560;22;20386;-82
2021/06/17 10:56:38;;;;;;;5.60;3.00;;;36.90;95.90;;;;;;6311639;22;20391;-81
2021/06/17 10:59:30;;;;;;;5.93;3.00;;;37.20;96.10;;;;;;6308683;22;20495;-81
2021/06/17 11:04:55;;;;;;;6.17;3.30;;;37.70;95.30;;;;;;6308527;22;20393;-83
2021/06/17 11:07:27;;;;;;;5.77;3.30;;;38.00;90.90;;;;;;6311071;22;20402;-82
2021/06/17 11:10:04;;;;;;;6.03;3.03;;;38.70;90.50;;;;;;6281419;22;20470;-83
2021/06/17 11:13:04;;;;;;;5.70;2.77;;;39.00;90.60;;;;;;6281000;22;20427;-82
2021/06/17 11:15:42;;;;;;;7.20;3.37;;;39.70;97.10;;;;;;6282475;22;20395;-84
2021/06/17 11:18:39;;;;;;;6.80;3.43;;;40.40;88.90;;;;;;6280269;22;20437;-82
2021/06/17 11:21:08;;;;;;;6.10;3.50;;;41.20;93.50;;;;;;6281617;22;20422;-82
2021/06/17 11:23:37;;;;;;;6.80;2.93;;;41.30;80.50;;;;;;6278863;22;20415;-83
2021/06/17 11:26:35;;;;;;;5.77;3.00;;;41.90;82.40;;;;;;6280623;22;20414;-83
2021/06/17 11:29:10;;;;;;;5.90;2.77;;;42.40;74.10;;;;;;6277780;22;20469;-81
2021/06/17 11:31:57;;;;;;;5.67;3.00;;;43.00;65.70;;;;;;6279509;22;20855;-84
2021/06/17 11:34:38;;;;;;;7.00;2.73;;;43.40;65.10;;;;;;6278515;22;20415;-82
2021/06/17 11:37:15;;;;;;;7.07;2.97;;;44.50;68.90;;;;;;6279668;22;20837;-81
2021/06/17 11:39:47;;;;;;;6.00;2.80;;;44.70;67.20;;;;;;6279756;22;20468;-83
2021/06/17 11:42:19;;;;;;;5.63;3.03;;;45.50;62.10;;;;;;6281558;22;20469;-80
2021/06/17 11:44:59;;;;;;;5.70;2.53;;;45.80;61.60;;;;;;6286783;22;20422;-80
2021/06/17 11:47:26;;;;;;;5.13;2.90;;;45.80;62.20;;;;;;6283521;22;20411;-79
2021/06/17 11:49:53;;;;;;;5.30;2.80;;;46.10;58.20;;;;;;6283427;22;20411;-78
2021/06/17 11:52:22;;;;;;;5.40;3.00;;;46.20;57.70;;;;;;6286643;22;20809;-81
2021/06/17 11:54:51;;;;;;;5.80;2.60;;;46.90;59.60;;;;;;6286406;22;20418;-80
2021/06/17 11:57:26;;;;;;;5.17;2.30;;;47.40;57.60;;;;;;6285106;22;20474;-81
2021/06/17 11:59:52;;;;;;;6.73;2.57;;;46.00;55.10;;;;;;6283352;22;20422;-79
2021/06/17 12:02:24;;;;;;;6.20;2.53;;;46.80;66.10;;;;;;6282222;22;20438;-82
2021/06/17 12:04:58;;;;;;;7.77;2.67;;;47.50;56.60;;;;;;6281932;22;20398;-81
2021/06/17 12:07:29;;;;;;;5.90;2.70;;;46.80;58.70;;;;;;6284666;22;20731;-81
2021/06/17 12:10:12;;;;;;;4.60;2.00;;;47.10;54.00;;;;;;6282089;22;20494;-81
2021/06/17 12:12:41;;;;;;;5.70;2.43;;;48.30;53.60;;;;;;6280945;22;20438;-80
2021/06/17 12:15:11;;;;;;;6.43;2.13;;;47.20;50.40;;;;;;6280528;22;20528;-81
2021/06/17 12:17:51;;;;;;;5.67;2.27;;;46.80;53.80;;;;;;6281635;22;20939;-81
2021/06/17 12:20:23;;;;;;;5.43;2.37;;;45.80;50.60;;;;;;6281426;22;20394;-79
2021/06/17 12:23:07;;;;;;;6.70;2.77;;;46.80;48.60;;;;;;6280911;22;20725;-82
2021/06/17 12:25:39;;;;;;;4.87;2.60;;;47.10;50.50;;;;;;6280438;22;20477;-80
2021/06/17 12:28:11;;;;;;;6.33;2.60;;;46.90;52.20;;;;;;6280880;22;20458;-81
2021/06/17 12:30:40;;;;;;;6.83;2.73;;;48.00;55.60;;;;;;6280778;22;20410;-83
2021/06/17 12:33:10;;;;;;;5.90;2.70;;;48.50;53.70;;;;;;6282150;22;20451;-79
2021/06/17 12:35:44;;;;;;;5.73;2.80;;;47.50;46.80;;;;;;6280603;22;20438;-81
2021/06/17 12:38:14;;;;;;;5.70;2.50;;;47.30;48.10;;;;;;6281082;22;20983;-80
2021/06/17 12:40:45;;;;;;;5.20;2.53;;;45.80;52.20;;;;;;6280134;22;20422;-81
2021/06/17 12:43:17;;;;;;;6.83;2.30;;;46.80;49.00;;;;;;6280279;22;20425;-79
2021/06/17 12:45:46;;;;;;;5.83;2.60;;;47.10;49.70;;;;;;6279421;22;20425;-81
2021/06/17 12:54:26;;;;;;;6.87;3.13;;;47.60;52.70;;;;;;6280938;22;20488;-81
2021/06/17 12:56:58;;;;;;;8.60;2.70;;;46.80;48.10;;;;;;6280249;22;20394;-82